Flight Track Log - Related Links

Times and Time Zones

All times are in EDT time to prevent confusion due to time zone crossing. See the N444RF flight status page for this flight to view local times or setup timezone preferences in your user account.

Time Position Orientation Groundspeed Altitude Reporting Facility
EDT Latitude Longitude Course Direction KTS MPH feet Rate Location/Type
Wed 04:31:48 PM 47.4750 -122.2131 150° Southeast 170 196 1,000  Level Seattle Center
Wed 04:32:37 PM 47.4325 -122.1775 150° Southeast 216 249 4,500 3,692 Climbing Seattle Center
Wed 04:33:06 PM 47.4094 -122.1550 147° Southeast 212 244 5,800 3,000 Climbing Seattle Center
Wed 04:34:07 PM 47.3458 -122.1419 172° South 233 268 9,000 1,525 Climbing Seattle Center
Wed 04:35:08 PM 47.2717 -122.1347 176° South 266 306 8,900 1,377 Descending Seattle Center
Wed 04:36:09 PM 47.1917 -122.1339 180° South 269 310 11,800 2,607 Climbing Seattle Center
Wed 04:37:10 PM 47.1178 -122.1292 178° South 270 311 14,200 2,656 Climbing Seattle Center
Wed 04:38:11 PM 47.0350 -122.1283 180° South 295 339 17,200 2,508 Climbing Seattle Center
Wed 04:39:12 PM 46.9592 -122.1069 169° South 314 361 19,300 2,115 Climbing Seattle Center
Wed 04:40:13 PM 46.8719 -122.0894 172° South 324 373 21,500 2,213 Climbing Seattle Center
Wed 04:41:14 PM 46.7803 -122.1006 185° South 333 383 23,800 2,410 Climbing Seattle Center
Wed 04:42:15 PM 46.6647 -122.1044 181° South 349 402 26,400 2,410 Climbing Seattle Center
Wed 04:43:16 PM 46.5683 -122.0831 171° South 353 406 28,700 2,164 Climbing Seattle Center
Wed 04:44:17 PM 46.4700 -122.0761 177° South 357 411 30,800 1,967 Climbing Seattle Center
Wed 04:45:18 PM 46.3722 -122.0628 175° South 356 410 32,700 1,672 Climbing Seattle Center
Wed 04:46:19 PM 46.2733 -122.0583 178° South 360 414 34,200 1,377 Climbing Seattle Center
Wed 04:47:20 PM 46.1772 -122.0475 176° South 366 421 35,500 1,180 Climbing Seattle Center
Wed 04:48:21 PM 46.0731 -122.0394 177° South 373 429 36,600 1,115 Climbing Seattle Center
Wed 04:50:23 PM 45.8369 -122.0186 176° South 385 443 38,900 1,082 Climbing Seattle Center
Wed 04:51:24 PM 45.7283 -122.0092 177° South 391 450 39,900 984 Climbing Seattle Center
Wed 04:52:25 PM 45.6222 -121.9986 176° South 383 441 40,900 541 Climbing Seattle Center
Wed 04:53:26 PM 45.5128 -121.9925 178° South 392 451 41,000 49 Climbing Seattle Center
Wed 04:54:27 PM 45.4006 -121.9803 176° South 403 464 41,000  Level Seattle Center
Wed 04:55:27 PM 45.2831 -121.9722 177° South 417 480 41,000  Level Seattle Center
Wed 04:56:28 PM 45.1658 -121.9619 176° South 421 484 41,000  Level Seattle Center
Wed 04:57:29 PM 45.0453 -121.9519 177° South 432 497 41,000  Level Seattle Center
Wed 04:58:30 PM 44.9275 -121.9419 177° South 424 488 41,000  Level Seattle Center
Wed 04:59:31 PM 44.8156 -121.9314 176° South 411 473 41,000  Level Seattle Center
Wed 05:00:32 PM 44.6981 -121.9242 177° South 419 482 41,000  Level Seattle Center
Wed 05:01:33 PM 44.5797 -121.9125 176° South 423 487 41,000  Level Seattle Center
Wed 05:02:34 PM 44.4400 -121.9036 177° South 420 483 41,000  Level Seattle Center
Wed 05:03:35 PM 44.3400 -121.8931 176° South 416 479 41,000  Level Seattle Center
Wed 05:04:36 PM 44.2256 -121.8853 177° South 414 476 41,000  Level Seattle Center
Wed 05:05:37 PM 44.1117 -121.8761 177° South 413 475 41,000  Level Seattle Center
Wed 05:06:38 PM 43.9972 -121.8664 177° South 414 476 41,000  Level Seattle Center
Wed 05:07:39 PM 43.8592 -121.8569 177° South 414 476 41,000  Level Seattle Center
Wed 05:08:40 PM 43.7622 -121.8486 176° South 417 480 41,000  Level Seattle Center
Wed 05:09:41 PM 43.6472 -121.8433 178° South 416 479 41,000  Level Seattle Center
Wed 05:10:42 PM 43.5089 -121.8336 177° South 414 476 41,000  Level Seattle Center
Wed 05:11:43 PM 43.3947 -121.8214 176° South 414 476 41,000  Level Seattle Center
Wed 05:12:44 PM 43.2789 -121.8142 177° South 417 480 41,000  Level Seattle Center
Wed 05:13:45 PM 43.1642 -121.8019 176° South 415 478 41,000  Level Seattle Center
Wed 05:14:46 PM 43.0486 -121.7944 177° South 414 476 41,000  Level Seattle Center
Wed 05:15:47 PM 42.9333 -121.7872 177° South 415 478 41,000  Level Seattle Center
Wed 05:16:48 PM 42.8183 -121.7808 178° South 412 474 41,000  Level Seattle Center
Wed 05:17:49 PM 42.7033 -121.7700 176° South 414 476 41,000  Level Seattle Center
Wed 05:18:50 PM 42.5883 -121.7625 177° South 412 474 41,000  Level Seattle Center
Wed 05:19:51 PM 42.4714 -121.7508 176° South 409 471 41,000  Level Seattle Center
Wed 05:20:52 PM 42.3592 -121.7431 177° South 410 472 41,000  Level Seattle Center
Wed 05:21:53 PM 42.2425 -121.7361 177° South 414 476 41,000  Level Seattle Center
Wed 05:22:54 PM 42.1264 -121.7344 179° South 413 475 41,000  Level Seattle Center
Wed 05:23:55 PM 42.0119 -121.7653 191° South 407 468 41,000  Level Seattle Center
Wed 05:24:56 PM 41.8975 -121.7936 190° South 409 471 41,000  Level Seattle Center
Wed 05:25:57 PM 41.7819 -121.8231 191° South 416 479 41,000  Level Seattle Center
Wed 05:26:58 PM 41.6517 -121.8533 190° South 417 480 41,000  Level Seattle Center
Wed 05:27:59 PM 41.5511 -121.8811 192° South 421 484 41,000  Level Seattle Center
Wed 05:29:00 PM 41.4361 -121.9097 191° South 420 483 41,000  Level Seattle Center
Wed 05:30:01 PM 41.2986 -121.9467 191° South 418 481 41,000  Level Seattle Center
Wed 05:31:02 PM 41.1833 -121.9756 191° South 421 484 41,000  Level Seattle Center
Wed 05:32:03 PM 41.0786 -122.0069 193° South 419 482 41,000  Level Seattle Center
Wed 05:32:40 PM 41.0092 -122.0217 189° South 423 487 41,000  Level Oakland Center
Wed 05:33:42 PM 40.8936 -122.0519 191° South 424 488 41,000  Level Oakland Center
Wed 05:34:43 PM 40.7575 -122.0886 192° South 419 482 41,000  Level Oakland Center
Wed 05:35:45 PM 40.6422 -122.1186 191° South 420 483 41,000  Level Oakland Center
Wed 05:36:46 PM 40.5272 -122.1503 192° South 422 486 41,000  Level Oakland Center
Wed 05:37:48 PM 40.4139 -122.1767 190° South 418 481 41,000  Level Oakland Center
Wed 05:38:49 PM 40.3003 -122.2069 191° South 416 479 41,000  Level Oakland Center
Wed 05:40:52 PM 40.0592 -122.2692 191° South 424 488 41,000 -163 Level Oakland Center
Wed 05:41:53 PM 39.9422 -122.3011 192° South 424 488 40,500 -1,073 Descending Oakland Center
Wed 05:42:55 PM 39.8292 -122.3267 190° South 411 473 38,800 -1,756 Descending Oakland Center
Wed 05:43:56 PM 39.7175 -122.3569 192° South 406 467 36,900 -1,869 Descending Oakland Center
Wed 05:44:57 PM 39.6031 -122.3847 191° South 419 482 35,000 -1,951 Descending Oakland Center
Wed 05:45:59 PM 39.4747 -122.4186 192° South 423 487 32,900 -1,951 Descending Oakland Center
Wed 05:47:00 PM 39.3631 -122.4436 190° South 407 468 31,000 -1,902 Descending Oakland Center
Wed 05:48:02 PM 39.2508 -122.4736 192° South 410 472 29,000 -1,902 Descending Oakland Center
Wed 05:49:03 PM 39.1367 -122.5000 190° South 416 479 27,100 -984 Descending Oakland Center
Wed 05:50:04 PM 39.0253 -122.5308 192° South 407 468 27,000 -537 Descending Oakland Center
Wed 05:51:06 PM 38.9189 -122.5539 190° South 396 456 26,000 -1,561 Descending Oakland Center
Wed 05:52:07 PM 38.7906 -122.5878 192° South 391 450 23,800 -2,146 Descending Oakland Center
Wed 05:53:09 PM 38.6867 -122.6133 191° South 381 438 21,600 -2,146 Descending Oakland Center
Wed 05:54:10 PM 38.5822 -122.6364 190° South 382 440 19,400 -2,049 Descending Oakland Center
Wed 05:55:12 PM 38.4806 -122.6392 181° South 367 422 17,400 -2,049 Descending Oakland Center
Wed 05:56:13 PM 38.3825 -122.6225 172° South 356 410 15,200 -2,049 Descending Oakland Center
Wed 05:57:15 PM 38.2942 -122.6056 171° South 324 373 13,200 -1,854 Descending Oakland Center
Wed 05:58:16 PM 38.2044 -122.5889 172° South 324 373 11,400 -1,805 Descending Oakland Center
Wed 05:59:18 PM 38.1169 -122.5728 172° South 319 367 9,500 -1,756 Descending Oakland Center
Wed 06:00:19 PM 38.0344 -122.5506 168° South 309 356 7,800 -1,366 Descending Oakland Center
Wed 06:01:21 PM 37.9786 -122.4925 141° Southeast 264 304 6,700 -1,317 Descending Oakland Center
Wed 06:02:22 PM 37.9153 -122.4192 138° Southeast 255 293 5,100 -829 Descending Oakland Center
Wed 06:03:24 PM 37.8750 -122.3417 123° Southeast 261 300 5,000 -49 Descending Oakland Center
Wed 06:04:25 PM 37.8308 -122.2706 128° Southeast 260 299 5,000  Level Oakland Center
Wed 06:05:27 PM 37.7964 -122.2053 124° Southeast 231 266 5,000  Level Oakland Center
Wed 06:06:28 PM 37.7631 -122.1408 123° Southeast 222 255 5,000 49 Level Oakland Center
Wed 06:07:30 PM 37.7436 -122.0592 107° East 258 297 5,100  Climbing Oakland Center
Wed 06:08:31 PM 37.7397 -121.9850 94° East 226 260 5,000  Descending Oakland Center
Wed 06:09:33 PM 37.7239 -121.9161 106° East 208 239 5,100  Climbing Oakland Center
Wed 06:10:34 PM 37.6750 -121.8739 146° Southeast 209 241 5,000  Descending Oakland Center
Wed 06:10:51 PM 37.6500 -121.8500 143° Southeast 209 241 5,100 -390 Climbing Northern Cal TRACON
Wed 06:11:51 PM 37.6167 -121.9000 230° Southwest 197 227 4,500 -505 Descending Northern Cal TRACON
Wed 06:12:38 PM 37.6381 -121.9369 306° West 180 207 4,200 -444 Descending Oakland Center
Wed 06:13:39 PM 37.6583 -121.9953 294° West 182 209 3,700 -878 Descending Oakland Center
Wed 06:14:41 PM 37.6775 -122.0553 292° West 183 211 2,400 -1,024 Descending Oakland Center
Wed 06:15:42 PM 37.6942 -122.1083 292° West 173 199 1,600 -732 Descending Oakland Center
Wed 06:16:44 PM 37.7053 -122.1428 292° West 132 152 900 -634 Descending Oakland Center
Wed 06:17:45 PM 37.7164 -122.1822 290° West 122 140 300 2,976 Descending Oakland Center
Wed 06:18:47 PM 37.7278 -122.2147 294° West 113 130 7,000 6,484 Climbing Oakland Center

Login

Don't have an account? Register now (free) for customized features, flight alerts, and more!